TimePST,TemperatureF,Dew PointF,Humidity,Sea Level PressureIn,VisibilityMPH,Wind Direction,Wind SpeedMPH,Gust SpeedMPH,PrecipitationIn,Events,Conditions,WindDirDegrees,DateUTC
12:56 AM,43.0,24.1,47,29.97,10.0,NW,9.2,-,N/A,,Scattered Clouds,310,2013-01-28 08:56:00
1:56 AM,39.9,17.1,40,29.98,10.0,West,13.8,-,N/A,,Clear,280,2013-01-28 09:56:00
2:56 AM,39.0,23.0,53,30.00,10.0,West,13.8,-,N/A,,Clear,270,2013-01-28 10:56:00
3:56 AM,39.0,21.9,50,30.00,10.0,West,10.4,-,N/A,,Clear,280,2013-01-28 11:56:00
4:56 AM,37.9,17.1,43,30.00,10.0,West,10.4,-,N/A,,Clear,270,2013-01-28 12:56:00
5:56 AM,35.1,17.1,48,30.02,10.0,West,10.4,-,N/A,,Clear,270,2013-01-28 13:56:00
6:56 AM,35.1,16.0,46,30.05,10.0,West,9.2,-,N/A,,Partly Cloudy,280,2013-01-28 14:56:00
7:56 AM,37.9,16.0,41,30.05,10.0,WNW,6.9,-,N/A,,Partly Cloudy,300,2013-01-28 15:56:00
8:56 AM,44.1,14.0,30,30.06,10.0,NW,12.7,17.3,N/A,,Partly Cloudy,320,2013-01-28 16:56:00
9:56 AM,46.9,12.0,24,30.07,10.0,NNW,9.2,-,N/A,,Clear,330,2013-01-28 17:56:00
10:56 AM,48.9,10.9,22,30.07,10.0,NW,9.2,-,N/A,,Clear,320,2013-01-28 18:56:00
11:56 AM,48.9,12.0,23,30.06,10.0,WNW,8.1,-,N/A,,Clear,290,2013-01-28 19:56:00
12:56 PM,51.1,17.1,26,30.04,10.0,SSW,6.9,-,N/A,,Scattered Clouds,210,2013-01-28 20:56:00
1:56 PM,51.1,10.9,20,30.04,10.0,Variable,5.8,-,N/A,,Mostly Cloudy,0,2013-01-28 21:56:00
2:56 PM,52.0,10.0,19,30.03,10.0,Variable,4.6,-,N/A,,Mostly Cloudy,0,2013-01-28 22:56:00
3:56 PM,51.1,16.0,25,30.05,10.0,West,5.8,-,N/A,,Mostly Cloudy,260,2013-01-28 23:56:00
4:56 PM,50.0,19.0,29,30.06,10.0,West,6.9,-,N/A,,Clear,270,2013-01-29 00:56:00
5:56 PM,45.0,21.9,40,30.09,10.0,West,9.2,-,N/A,,Mostly Cloudy,270,2013-01-29 01:56:00
6:56 PM,39.9,21.9,49,30.12,10.0,SE,5.8,-,N/A,,Scattered Clouds,130,2013-01-29 02:56:00
7:56 PM,39.9,23.0,51,30.12,10.0,South,8.1,-,N/A,,Mostly Cloudy,180,2013-01-29 03:56:00
8:56 PM,39.0,23.0,53,30.12,10.0,South,6.9,-,N/A,,Mostly Cloudy,190,2013-01-29 04:56:00
9:56 PM,37.0,23.0,57,30.13,10.0,SSW,6.9,-,N/A,,Clear,210,2013-01-29 05:56:00
10:56 PM,36.0,24.1,62,30.13,10.0,SSW,8.1,-,N/A,,Mostly Cloudy,200,2013-01-29 06:56:00
11:56 PM,35.1,21.9,59,30.14,10.0,North,3.5,-,N/A,,Clear,350,2013-01-29 07:56:00